Thursday, January 18, 2018, 8:56 PM EST
Back to Local

KAOO, Altoona-blair County Airport

Location: Martinsburg, PA, United States Lat: 40.3
Local Time: 8:56 PM EST ( 1:56 GMT) Lon: -78.317
Time Zone: US/Eastern Elev: 1502 ft

Show me the last for .
Show Decoded

2018-01-18 19:53 METAR KAOO 190053Z AUTO 27010KT 10SM CLR M03/M12 A3005 RMK AO2 SLP197 T10331122
                 =
2018-01-18 18:53 METAR KAOO 182353Z AUTO 29010KT 10SM CLR M03/M13 A3004 RMK AO2 SLP195 T10281128
                 11011 21039 53009 =
2018-01-18 17:53 METAR KAOO 182253Z AUTO 29009KT 10SM CLR M03/M13 A3002 RMK AO2 SLP189 T10331128
                 =
2018-01-18 16:53 METAR KAOO 182153Z AUTO 29009KT 10SM CLR M02/M12 A3002 RMK AO2 SLP188 T10221122
                 =
2018-01-18 15:53 METAR KAOO 182053Z AUTO 29013KT 10SM CLR M01/M12 A3001 RMK AO2 SLP185 T10111122
                 55008 =
2018-01-18 14:53 METAR KAOO 181953Z AUTO 29015KT 10SM CLR M01/M12 A3000 RMK AO2 PK WND 28026/1915
                 SLP183 T10111122 =
2018-01-18 13:53 METAR KAOO 181853Z AUTO 29015KT 10SM CLR M02/M12 A3001 RMK AO2 SLP187 T10171117
                 =
2018-01-18 12:53 METAR KAOO 181753Z AUTO 28015G21KT 10SM CLR M02/M13 A3004 RMK AO2 SLP196
                 T10221128 11022 21089 58020 =
2018-01-18 11:53 METAR KAOO 181653Z AUTO 28016KT 10SM CLR M02/M14 A3007 RMK AO2 SLP209 T10221139
                 =
2018-01-18 10:53 METAR KAOO 181553Z AUTO 28012KT 10SM CLR M04/M15 A3008 RMK AO2 SLP213 T10391150
                 =
2018-01-18 09:53 METAR KAOO 181453Z AUTO 22008KT 10SM CLR M06/M14 A3010 RMK AO2 SLP220 T10611144
                 56002 =
2018-01-18 08:53 METAR KAOO 181353Z AUTO 20012KT 10SM CLR M08/M16 A3010 RMK AO2 SLP221 T10831156
                 =
2018-01-18 07:53 METAR KAOO 181253Z AUTO 22011KT 10SM CLR M08/M17 A3010 RMK AO2 SLP220 T10781167
                 =
2018-01-18 06:53 METAR KAOO 181153Z AUTO 23011KT 10SM CLR M08/M16 A3010 RMK AO2 SLP223 T10831161
                 11083 21122 56009 =
2018-01-18 05:53 METAR KAOO 181053Z AUTO 26011KT 10SM CLR M09/M16 A3011 RMK AO2 SLP226 T10941161
                 =
2018-01-18 04:53 METAR KAOO 180953Z AUTO 26009KT 10SM CLR M09/M16 A3012 RMK AO2 SLP228 T10941156
                 =
2018-01-18 03:53 METAR KAOO 180853Z AUTO 25004KT 10SM FEW110 M11/M16 A3013 RMK AO2 SLP232
                 T11061161 58014 =
2018-01-18 02:53 METAR KAOO 180753Z AUTO 29010KT 10SM CLR M11/M17 A3015 RMK AO2 SLP239 T11111167
                 =
2018-01-18 01:53 METAR KAOO 180653Z AUTO 24004KT 10SM CLR M12/M17 A3016 RMK AO2 SLP243 T11171167
                 =
2018-01-18 00:53 METAR KAOO 180553Z AUTO 25007KT 10SM CLR M12/M16 A3017 RMK AO2 SLP248 T11171156
                 11106 21144 58018 =
2018-01-17 23:53 METAR KAOO 180453Z AUTO 23006KT 10SM CLR M13/M16 A3020 RMK AO2 SLP258 T11281161
                 410671139 =
2018-01-17 22:53 METAR KAOO 180353Z AUTO 24005KT 10SM CLR M13/M16 A3022 RMK AO2 SLP266 T11281161
                 =
2018-01-17 22:08 METAR KAOO 180308Z AUTO 28005KT 10SM FEW019 M12/M16 A3023 RMK AO2 T11171156 =
2018-01-17 21:53 METAR KAOO 180253Z AUTO 28006KT 10SM BKN018 M12/M16 A3023 RMK AO2 SLP271
                 T11171156 58014 =

Support USWX by starting your Amazon purchase here.